Time;durP1;ratioP1;P1;durP2;ratioP2;P2;SDS_P1;SDS_P2;PMS_P1;PMS_P2;Temp;Humidity;BMP_temperature;BMP_pressure;BME280_temperature;BME280_humidity;BME280_pressure;Samples;Min_cycle;Max_cycle;Signal;HPM_P1;HPM_P2
2021/11/20 09:40:49;;;;;;;7.93;6.65;;;;;;;10.64;79.78;95222.03;5135961;27;20199;-70
2021/11/20 09:43:25;;;;;;;8.00;6.50;;;;;;;11.32;79.21;95229.28;5127113;28;20507;-69
2021/11/20 09:46:25;;;;;;;9.32;6.05;;;;;;;11.55;76.63;95218.00;5125914;28;20031;-70
2021/11/20 09:49:00;;;;;;;9.38;6.32;;;;;;;11.28;77.85;95215.84;5126934;28;20027;-71
2021/11/20 09:51:34;;;;;;;6.82;6.07;;;;;;;11.04;79.33;95226.31;5107364;28;20375;-70
2021/11/20 09:54:06;;;;;;;12.77;6.28;;;;;;;10.82;79.56;95220.03;5126475;28;20031;-69
2021/11/20 09:56:41;;;;;;;9.05;6.78;;;;;;;10.81;80.44;95223.63;5108669;28;20066;-70
2021/11/20 09:59:25;;;;;;;7.88;7.07;;;;;;;10.94;80.40;95218.72;5107092;28;20066;-69
2021/11/20 10:02:19;;;;;;;7.72;6.70;;;;;;;11.11;79.80;95215.09;5108510;28;20140;-69
2021/11/20 10:05:03;;;;;;;7.05;6.40;;;;;;;11.18;79.65;95212.63;5098373;28;20078;-70
2021/11/20 10:07:51;;;;;;;7.35;6.05;;;;;;;12.02;76.01;95212.72;5106838;28;20023;-69
2021/11/20 10:10:19;;;;;;;6.80;6.10;;;;;;;12.03;76.26;95216.13;5099290;28;20031;-70
2021/11/20 10:13:11;;;;;;;8.27;6.57;;;;;;;11.58;77.53;95203.88;5105156;28;20035;-69
2021/11/20 10:15:44;;;;;;;8.77;6.03;;;;;;;11.35;78.38;95210.78;5087202;28;20024;-70
2021/11/20 10:18:12;;;;;;;7.18;6.18;;;;;;;11.25;79.20;95205.00;5088132;28;20050;-70
2021/11/20 10:20:46;;;;;;;7.50;6.80;;;;;;;11.45;78.97;95195.84;5104611;28;20028;-70
2021/11/20 10:23:26;;;;;;;10.85;7.40;;;;;;;11.58;78.73;95198.69;5088104;28;20038;-69
2021/11/20 10:26:29;;;;;;;7.28;6.30;;;;;;;11.49;78.67;95197.13;5104872;28;20020;-70
2021/11/20 10:29:27;;;;;;;6.78;6.18;;;;;;;11.21;78.88;95195.94;5105140;28;20062;-69
2021/11/20 10:32:37;;;;;;;7.20;5.78;;;;;;;11.33;78.91;95192.81;5088098;28;20028;-69
2021/11/20 10:35:13;;;;;;;;;;;;;;;11.49;79.32;95181.56;5040442;28;20512;-69
2021/11/20 10:37:52;;;;;;;6.22;5.72;;;;;;;11.28;79.65;95186.50;5104542;28;19962;-70
2021/11/20 10:40:36;;;;;;;8.27;5.78;;;;;;;11.16;80.81;95206.00;5116575;28;20047;-70
2021/11/20 10:43:06;;;;;;;6.95;6.25;;;;;;;11.34;79.88;95197.03;5081919;28;20086;-70
2021/11/20 10:45:53;;;;;;;7.55;5.78;;;;;;;11.39;80.18;95201.72;5068022;28;20043;-70
2021/11/20 10:48:30;;;;;;;7.53;6.82;;;;;;;11.28;79.90;95199.47;5085825;28;20059;-69
2021/11/20 10:51:25;;;;;;;8.55;5.93;;;;;;;11.17;81.03;95189.50;5069818;28;20035;-70
2021/11/20 10:54:15;;;;;;;9.23;5.78;;;;;;;11.32;80.64;95190.38;5065108;28;20032;-69
2021/11/20 10:57:18;;;;;;;5.82;5.25;;;;;;;11.09;81.42;95188.53;5066429;28;20046;-68
2021/11/20 10:59:50;;;;;;;6.25;5.75;;;;;;;11.35;80.14;95179.69;5044433;28;20439;-70
2021/11/20 11:02:40;;;;;;;6.68;5.95;;;;;;;11.56;79.60;95187.66;5070657;28;20048;-69
2021/11/20 11:05:05;;;;;;;;;;;;;;;11.57;79.47;95191.88;5069668;28;20060;-70
2021/11/20 11:07:33;;;;;;;6.05;5.55;;;;;;;11.79;78.44;95193.72;5069727;28;19955;-70
2021/11/20 11:10:07;;;;;;;7.03;5.97;;;;;;;11.55;79.75;95197.25;5069123;28;20536;-70
2021/11/20 11:12:50;;;;;;;6.63;6.13;;;;;;;11.39;79.84;95180.97;5067547;28;20025;-69
2021/11/20 11:15:48;;;;;;;6.30;5.70;;;;;;;11.34;80.28;95189.25;5059283;28;20361;-68
2021/11/20 11:18:25;;;;;;;6.32;5.72;;;;;;;11.24;80.89;95193.03;5066041;28;20052;-69
2021/11/20 11:21:25;;;;;;;7.72;6.88;;;;;;;11.15;81.13;95183.66;5067494;28;20504;-70
2021/11/20 11:24:28;;;;;;;8.75;6.40;;;;;;;11.10;81.50;95177.22;5068853;28;20028;-69
2021/11/20 11:27:14;;;;;;;7.38;6.78;;;;;;;11.00;82.32;95183.56;5068204;28;20029;-68
2021/11/20 11:29:58;;;;;;;7.47;6.80;;;;;;;11.20;81.75;95182.19;5066727;28;20530;-69
2021/11/20 11:32:25;;;;;;;7.55;6.95;;;;;;;11.09;82.20;95182.53;5090559;28;20489;-70
2021/11/20 11:34:55;;;;;;;7.20;6.70;;;;;;;11.16;82.03;95180.09;5067209;28;20021;-67
2021/11/20 11:37:24;;;;;;;9.07;7.30;;;;;;;11.01;82.34;95177.41;5069643;28;20132;-69
2021/11/20 11:40:05;;;;;;;8.80;7.85;;;;;;;11.05;82.65;95189.03;5082062;28;20157;-69
2021/11/20 11:42:48;;;;;;;8.65;7.95;;;;;;;10.95;83.06;95181.47;5086690;28;20031;-67
2021/11/20 11:45:25;;;;;;;9.93;9.00;;;;;;;11.05;82.62;95184.66;5087996;28;20017;-69
2021/11/20 11:48:12;;;;;;;14.70;9.10;;;;;;;11.23;82.01;95186.22;5088433;28;20162;-68
2021/11/20 11:50:59;;;;;;;9.05;8.25;;;;;;;10.98;83.33;95194.06;5056026;28;20096;-69
2021/11/20 11:53:39;;;;;;;12.32;9.55;;;;;;;11.18;82.22;95188.50;5069632;28;20027;-70
2021/11/20 11:56:09;;;;;;;;;;;;;;;10.95;83.59;95184.03;5039755;28;20515;-70
2021/11/20 11:58:34;;;;;;;;;;;;;;;10.91;83.54;95195.75;5071113;28;19935;-70
2021/11/20 12:01:16;;;;;;;10.05;9.13;;;;;;;11.00;83.17;95184.38;5104775;28;20365;-71
2021/11/20 12:03:46;;;;;;;9.98;8.95;;;;;;;11.08;82.54;95178.31;5057614;28;20078;-70
2021/11/20 12:06:14;;;;;;;10.60;9.70;;;;;;;10.90;83.42;95181.16;5071079;28;20024;-70
2021/11/20 12:09:02;;;;;;;43.90;33.17;;;;;;;11.07;82.86;95177.53;5088409;28;20027;-70
2021/11/20 12:11:27;;;;;;;11.32;10.30;;;;;;;11.00;82.82;95179.19;5071116;28;20032;-70
2021/11/20 12:14:13;;;;;;;12.88;11.57;;;;;;;11.00;82.93;95180.97;5088439;28;20028;-70
2021/11/20 12:16:47;;;;;;;9.77;8.82;;;;;;;10.87;83.12;95175.50;5073852;28;20133;-69
2021/11/20 12:19:28;;;;;;;11.63;10.02;;;;;;;10.98;82.82;95173.34;5089366;28;20024;-69
2021/11/20 12:22:20;;;;;;;10.73;9.73;;;;;;;10.90;83.24;95170.78;5088232;28;20066;-70
2021/11/20 12:24:51;;;;;;;10.50;9.55;;;;;;;11.00;82.68;95162.81;5089296;28;20032;-68
2021/11/20 12:27:39;;;;;;;13.88;12.52;;;;;;;11.06;82.39;95154.38;5072423;28;20400;-69
2021/11/20 12:30:18;;;;;;;12.30;11.25;;;;;;;11.00;82.49;95147.28;5098865;28;20034;-69
2021/11/20 12:32:58;;;;;;;12.43;11.13;;;;;;;11.22;82.05;95143.13;5093217;28;20024;-69
2021/11/20 12:35:50;;;;;;;15.10;13.77;;;;;;;11.34;81.26;95144.34;5073298;28;20694;-69
2021/11/20 12:38:36;;;;;;;10.25;9.45;;;;;;;11.28;81.00;95135.47;5044516;28;20044;-70
2021/11/20 12:41:20;;;;;;;8.88;8.27;;;;;;;11.25;80.96;95135.81;5087614;28;20466;-69
2021/11/20 12:44:01;;;;;;;9.20;8.50;;;;;;;11.23;80.50;95135.19;5085735;28;20020;-70
2021/11/20 12:46:41;;;;;;;33.50;29.42;;;;;;;11.24;80.62;95128.22;5086249;28;20032;-69
2021/11/20 12:49:15;;;;;;;11.18;10.07;;;;;;;11.22;80.69;95135.34;5085732;28;20027;-69
2021/11/20 12:51:44;;;;;;;9.27;8.32;;;;;;;11.16;80.17;95126.47;5068106;28;20104;-68
2021/11/20 12:54:40;;;;;;;8.45;7.75;;;;;;;11.22;79.79;95114.59;5087669;28;20103;-69
2021/11/20 12:57:30;;;;;;;8.98;8.10;;;;;;;11.19;79.59;95104.56;5068254;28;20034;-69
2021/11/20 13:00:10;;;;;;;11.10;7.13;;;;;;;11.10;80.17;95102.03;5085742;28;20032;-69
2021/11/20 13:02:47;;;;;;;20.85;19.05;;;;;;;11.31;79.86;95103.19;5085967;28;20024;-70
2021/11/20 13:05:22;;;;;;;13.95;12.45;;;;;;;11.22;79.75;95106.81;5086891;28;20022;-68
2021/11/20 13:07:54;;;;;;;8.05;7.28;;;;;;;11.21;79.54;95103.41;5087480;28;20081;-69
2021/11/20 13:10:54;;;;;;;20.77;18.88;;;;;;;11.20;79.62;95107.00;5098700;28;20045;-68
2021/11/20 13:13:23;;;;;;;;;;;;;;;11.07;79.69;95114.53;5091967;28;20020;-69
2021/11/20 13:16:09;;;;;;;8.57;7.63;;;;;;;11.13;79.83;95106.06;5089063;28;20343;-69
2021/11/20 13:18:40;;;;;;;7.20;6.65;;;;;;;11.08;79.83;95106.56;5087420;28;20112;-70
2021/11/20 13:21:12;;;;;;;7.28;6.57;;;;;;;11.13;79.86;95111.25;5103905;27;20112;-69
2021/11/20 13:23:39;;;;;;;6.18;5.68;;;;;;;11.33;79.12;95120.22;5088251;28;20103;-69
2021/11/20 13:26:05;;;;;;;7.55;6.95;;;;;;;11.21;79.66;95126.75;5087382;28;20020;-69
2021/11/20 13:28:40;;;;;;;6.25;5.65;;;;;;;11.11;79.48;95115.78;5069795;28;20116;-69
2021/11/20 13:31:07;;;;;;;8.10;6.20;;;;;;;11.15;79.02;95113.66;5101862;28;20056;-70
2021/11/20 13:33:33;;;;;;;8.70;6.72;;;;;;;11.00;79.46;95126.53;5053526;28;20093;-69
2021/11/20 13:36:04;;;;;;;6.88;6.28;;;;;;;11.09;79.74;95130.72;5087085;28;20482;-70
2021/11/20 13:38:30;;;;;;;8.88;6.15;;;;;;;10.89;80.30;95109.56;5083662;28;20532;-69
2021/11/20 13:40:57;;;;;;;6.95;5.63;;;;;;;10.66;80.52;95113.09;5088522;28;20028;-69
2021/11/20 13:43:28;;;;;;;6.22;5.63;;;;;;;10.58;81.17;95103.56;5048559;28;20017;-70
2021/11/20 13:45:57;;;;;;;7.88;5.72;;;;;;;10.58;81.31;95103.56;5075179;28;20031;-70
2021/11/20 13:48:28;;;;;;;6.65;6.15;;;;;;;10.55;81.02;95093.53;5099727;28;20032;-69
2021/11/20 13:50:54;;;;;;;6.18;5.57;;;;;;;10.58;81.79;95104.38;5065396;28;20024;-69
2021/11/20 13:53:25;;;;;;;6.53;5.78;;;;;;;10.69;81.39;95113.53;5067570;28;20645;-70
2021/11/20 13:55:53;;;;;;;8.88;6.30;;;;;;;10.50;81.82;95114.72;5067624;28;20449;-70
2021/11/20 13:58:26;;;;;;;6.68;6.03;;;;;;;10.43;81.97;95108.63;5066141;28;20028;-70
2021/11/20 14:00:56;;;;;;;7.43;6.68;;;;;;;10.39;81.53;95111.69;5088681;28;20402;-67
2021/11/20 14:03:22;;;;;;;6.97;6.38;;;;;;;10.27;82.27;95107.84;5065091;28;20485;-70
2021/11/20 14:05:48;;;;;;;6.97;6.38;;;;;;;10.34;82.15;95096.66;5101830;28;20051;-71
2021/11/20 14:08:15;;;;;;;7.35;6.30;;;;;;;10.24;82.71;95090.06;5050347;28;20555;-70
2021/11/20 14:10:42;;;;;;;6.95;6.35;;;;;;;10.17;83.08;95089.91;5051505;28;20511;-70
2021/11/20 14:13:19;;;;;;;6.93;5.97;;;;;;;10.11;83.18;95080.19;5102007;28;20046;-70
2021/11/20 14:15:46;;;;;;;6.93;6.22;;;;;;;10.10;83.27;95083.72;5086047;28;20063;-70
2021/11/20 14:18:11;;;;;;;7.13;6.20;;;;;;;10.07;82.88;95064.19;5067356;28;20020;-69
2021/11/20 14:20:45;;;;;;;7.65;6.47;;;;;;;10.16;82.93;95075.34;5084327;28;20039;-69
2021/11/20 14:23:15;;;;;;;7.82;6.07;;;;;;;10.23;83.07;95068.53;5068027;28;20028;-70
2021/11/20 14:25:40;;;;;;;6.35;5.75;;;;;;;10.17;83.15;95070.97;5085470;28;20055;-68
2021/11/20 14:28:07;;;;;;;7.03;6.32;;;;;;;10.06;83.06;95070.31;5050511;28;20116;-68
2021/11/20 14:30:42;;;;;;;7.90;5.70;;;;;;;9.95;83.16;95064.69;5084110;28;20121;-70
2021/11/20 14:33:18;;;;;;;8.90;6.07;;;;;;;9.93;83.02;95071.78;5075162;28;20035;-70
2021/11/20 14:35:55;;;;;;;7.10;6.20;;;;;;;9.85;83.36;95077.78;5089779;28;20036;-70
2021/11/20 14:38:21;;;;;;;7.25;6.53;;;;;;;9.81;83.80;95073.09;5070357;28;20396;-70
2021/11/20 14:40:52;;;;;;;7.85;7.20;;;;;;;9.79;83.52;95081.00;5089872;28;20031;-69
2021/11/20 14:43:27;;;;;;;;;;;;;;;9.78;83.83;95074.25;5051273;28;20127;-69
2021/11/20 14:45:53;;;;;;;7.85;7.13;;;;;;;9.67;84.43;95074.56;5080782;28;19964;-70
2021/11/20 14:48:23;;;;;;;9.43;8.43;;;;;;;9.56;84.63;95072.31;5074521;28;20085;-70
2021/11/20 14:50:51;;;;;;;8.43;7.25;;;;;;;9.45;84.79;95077.78;5071550;28;20936;-70
2021/11/20 14:53:18;;;;;;;9.32;8.43;;;;;;;9.30;85.27;95074.22;5099546;28;20073;-69
2021/11/20 14:55:51;;;;;;;8.95;8.15;;;;;;;9.19;85.55;95074.50;5071523;28;20433;-69
2021/11/20 14:58:19;;;;;;;12.43;6.78;;;;;;;9.13;85.62;95069.97;5069701;28;20054;-69
2021/11/20 15:00:47;;;;;;;8.40;7.60;;;;;;;8.99;86.36;95074.78;5070355;28;20081;-69
2021/11/20 15:03:13;;;;;;;11.90;7.07;;;;;;;8.93;86.65;95079.78;5104064;27;20042;-68
2021/11/20 15:05:39;;;;;;;9.30;6.80;;;;;;;8.92;86.66;95080.78;5089096;28;20024;-69
2021/11/20 15:08:04;;;;;;;8.07;6.43;;;;;;;8.89;86.84;95081.88;5070281;28;20051;-70
2021/11/20 15:10:30;;;;;;;7.70;7.00;;;;;;;8.85;86.66;95079.78;5069936;28;20111;-68
2021/11/20 15:12:56;;;;;;;7.63;6.93;;;;;;;8.81;87.13;95083.63;5070791;28;20682;-69
2021/11/20 15:15:21;;;;;;;8.52;7.32;;;;;;;8.74;87.36;95086.03;5072479;28;20028;-69
2021/11/20 15:17:47;;;;;;;8.13;6.75;;;;;;;8.73;86.67;95086.19;5082704;28;20028;-69
2021/11/20 15:20:14;;;;;;;11.25;8.18;;;;;;;8.66;87.14;95087.78;5050367;28;20033;-69
2021/11/20 15:22:40;;;;;;;9.02;8.10;;;;;;;8.53;88.46;95087.41;5066667;28;20023;-70
2021/11/20 15:25:07;;;;;;;8.68;7.90;;;;;;;8.49;88.31;95092.06;5070563;28;20120;-69
2021/11/20 15:27:32;;;;;;;10.07;8.95;;;;;;;8.47;88.43;95096.56;5088623;28;20775;-69
2021/11/20 15:29:58;;;;;;;14.23;8.27;;;;;;;8.50;88.14;95106.59;5070379;28;20024;-70
2021/11/20 15:32:24;;;;;;;9.82;8.82;;;;;;;8.42;88.34;95112.50;5087073;28;20039;-70
2021/11/20 15:34:50;;;;;;;8.63;7.82;;;;;;;8.48;88.24;95108.50;5070546;28;20044;-68
2021/11/20 15:37:15;;;;;;;8.88;8.05;;;;;;;8.57;88.14;95109.38;5073355;28;20074;-71
2021/11/20 15:39:42;;;;;;;8.73;7.93;;;;;;;8.61;87.89;95113.22;5068826;28;20086;-69
2021/11/20 15:42:08;;;;;;;8.98;8.18;;;;;;;8.51;87.71;95097.06;5067323;28;20042;-70
2021/11/20 15:44:36;;;;;;;10.05;7.85;;;;;;;8.54;88.34;95105.28;5069478;28;20028;-69
2021/11/20 15:47:02;;;;;;;9.43;8.45;;;;;;;8.48;88.81;95106.72;5068071;28;20921;-69
2021/11/20 15:49:28;;;;;;;10.90;8.15;;;;;;;8.52;88.36;95104.66;5047978;28;20114;-69
2021/11/20 15:51:55;;;;;;;10.05;7.97;;;;;;;8.48;88.70;95109.31;5077971;28;20103;-70
2021/11/20 15:54:21;;;;;;;9.23;8.32;;;;;;;8.41;88.82;95108.28;5092163;28;20123;-70
2021/11/20 15:56:47;;;;;;;8.13;7.30;;;;;;;8.40;88.75;95103.31;5061138;28;20723;-70
2021/11/20 15:59:12;;;;;;;11.40;8.27;;;;;;;8.26;89.20;95094.31;5068112;28;20034;-69
2021/11/20 16:01:41;;;;;;;10.05;9.05;;;;;;;8.21;89.46;95106.06;5070831;28;20100;-72
2021/11/20 16:04:07;;;;;;;14.35;12.15;;;;;;;8.13;89.99;95106.00;5064226;28;20031;-71
2021/11/20 16:06:32;;;;;;;17.00;12.30;;;;;;;8.18;89.81;95106.38;5074157;28;20020;-71
2021/11/20 16:08:58;;;;;;;12.52;11.15;;;;;;;8.12;89.79;95099.25;5086589;28;20028;-71
2021/11/20 16:11:24;;;;;;;9.70;8.90;;;;;;;8.10;89.97;95094.22;5055349;28;20065;-71
2021/11/20 16:13:50;;;;;;;9.52;8.63;;;;;;;8.06;89.88;95097.28;5102372;27;20063;-70
2021/11/20 16:16:16;;;;;;;10.70;9.57;;;;;;;7.93;89.89;95095.88;5069486;28;20450;-70
2021/11/20 16:18:42;;;;;;;12.35;10.70;;;;;;;7.94;90.02;95096.72;5068282;28;20078;-71
2021/11/20 16:21:10;;;;;;;12.32;11.00;;;;;;;7.81;90.61;95098.88;5050497;28;20046;-71
2021/11/20 16:23:36;;;;;;;12.63;11.38;;;;;;;7.78;90.86;95109.47;5069219;28;20609;-72
2021/11/20 16:26:02;;;;;;;14.18;11.65;;;;;;;7.72;90.87;95112.66;5057587;28;20031;-72
2021/11/20 16:28:27;;;;;;;16.42;11.50;;;;;;;7.65;91.26;95109.88;5063006;28;20028;-72
2021/11/20 16:30:53;;;;;;;17.48;12.00;;;;;;;7.55;91.41;95118.63;5052499;28;20031;-72
2021/11/20 16:33:18;;;;;;;16.10;11.45;;;;;;;7.52;92.01;95118.94;5048872;28;20028;-72
2021/11/20 16:35:44;;;;;;;23.40;15.80;;;;;;;7.40;91.90;95120.91;5074994;28;20353;-72
2021/11/20 16:38:09;;;;;;;21.23;14.57;;;;;;;7.43;92.31;95131.75;5080209;28;20104;-72
2021/11/20 16:40:35;;;;;;;26.27;14.20;;;;;;;7.38;92.28;95128.00;5086092;27;20047;-71
2021/11/20 16:43:00;;;;;;;24.25;16.25;;;;;;;7.29;92.73;95129.66;5072436;28;20512;-72
2021/11/20 16:45:26;;;;;;;23.02;15.15;;;;;;;7.26;92.91;95121.41;5068567;28;20028;-72
2021/11/20 16:47:51;;;;;;;20.92;15.80;;;;;;;7.22;93.17;95118.34;5067816;28;20038;-72
2021/11/20 16:50:28;;;;;;;25.60;15.20;;;;;;;7.25;93.29;95122.41;5086074;28;20039;-72
2021/11/20 16:52:53;;;;;;;22.30;13.65;;;;;;;7.28;93.22;95127.25;5070949;28;20397;-72
2021/11/20 16:55:19;;;;;;;20.45;15.25;;;;;;;7.19;93.41;95122.97;5048005;28;20023;-72
2021/11/20 16:57:44;;;;;;;25.90;17.60;;;;;;;7.13;93.95;95115.81;5048308;28;20706;-72
2021/11/20 17:00:12;;;;;;;24.15;17.95;;;;;;;7.17;93.65;95117.16;5042933;28;20043;-72
2021/11/20 17:02:37;;;;;;;21.40;17.02;;;;;;;7.20;94.31;95120.25;5051827;28;20036;-72
2021/11/20 17:05:03;;;;;;;24.95;15.68;;;;;;;7.13;93.93;95121.78;5051570;28;20035;-72
2021/11/20 17:07:29;;;;;;;27.92;18.65;;;;;;;7.03;94.56;95121.03;5068448;28;20572;-72
2021/11/20 17:09:55;;;;;;;22.77;16.60;;;;;;;7.24;94.66;95119.00;5047681;28;20116;-72
2021/11/20 17:12:21;;;;;;;24.13;16.90;;;;;;;7.13;94.28;95126.13;5068588;28;20035;-72
2021/11/20 17:14:46;;;;;;;24.83;17.73;;;;;;;7.24;94.39;95125.91;5068434;28;20382;-72
2021/11/20 17:17:12;;;;;;;28.05;17.83;;;;;;;7.10;94.44;95131.56;5086172;28;20024;-72
2021/11/20 17:19:38;;;;;;;24.92;17.85;;;;;;;7.02;94.46;95131.50;5101288;28;20087;-72
2021/11/20 17:22:05;;;;;;;23.70;16.13;;;;;;;6.95;95.07;95127.88;5078720;28;20047;-72
2021/11/20 17:24:31;;;;;;;22.60;15.43;;;;;;;6.94;95.08;95127.03;5090525;28;20527;-71
2021/11/20 17:26:58;;;;;;;35.65;17.80;;;;;;;6.95;94.85;95128.69;5074223;28;20046;-72
2021/11/20 17:29:24;;;;;;;31.20;16.95;;;;;;;6.86;95.42;95122.63;5053030;28;20035;-72
2021/11/20 17:31:49;;;;;;;29.52;17.35;;;;;;;6.86;95.40;95114.91;5055414;28;20032;-72
2021/11/20 17:34:15;;;;;;;33.70;17.85;;;;;;;6.74;95.42;95116.03;5052877;28;20085;-72
2021/11/20 17:36:40;;;;;;;27.50;16.42;;;;;;;6.71;95.17;95124.03;5045693;28;20409;-70
2021/11/20 17:39:06;;;;;;;28.98;16.73;;;;;;;6.69;95.65;95113.09;5066649;28;20055;-68
2021/11/20 17:41:31;;;;;;;18.52;14.40;;;;;;;6.58;95.57;95126.13;5058215;28;20024;-69
2021/11/20 17:43:57;;;;;;;15.13;11.80;;;;;;;6.53;95.65;95114.66;5054668;28;20064;-70
2021/11/20 17:46:22;;;;;;;14.68;10.95;;;;;;;6.41;96.01;95115.81;5061812;28;20043;-70
2021/11/20 17:48:48;;;;;;;15.00;11.10;;;;;;;6.26;96.12;95118.81;5053753;28;20024;-70
2021/11/20 17:51:14;;;;;;;15.48;12.18;;;;;;;6.18;96.55;95117.91;5071525;28;20043;-70
2021/11/20 17:53:40;;;;;;;21.35;12.88;;;;;;;6.00;96.92;95096.47;5054798;28;20468;-70
2021/11/20 17:56:05;;;;;;;18.60;12.93;;;;;;;6.11;96.81;95111.69;5075040;28;20107;-69
2021/11/20 17:58:31;;;;;;;19.35;13.00;;;;;;;6.01;96.91;95116.88;5076259;28;20048;-70
2021/11/20 18:00:59;;;;;;;23.05;14.38;;;;;;;5.96;97.43;95103.63;5071049;28;20553;-70
2021/11/20 18:03:25;;;;;;;19.00;14.43;;;;;;;6.02;96.87;95105.63;5052794;28;20017;-69
2021/11/20 18:05:51;;;;;;;16.10;13.95;;;;;;;5.99;96.88;95105.91;5060575;28;20089;-70
2021/11/20 18:08:17;;;;;;;14.00;12.60;;;;;;;5.79;97.63;95106.88;5102168;28;20045;-70
2021/11/20 18:10:43;;;;;;;17.55;13.60;;;;;;;5.86;97.87;95113.13;5094451;28;20081;-70
2021/11/20 18:13:09;;;;;;;21.08;14.05;;;;;;;5.92;97.82;95115.13;5071550;28;20099;-70
2021/11/20 18:15:35;;;;;;;17.75;13.98;;;;;;;5.98;97.38;95114.56;5071024;28;21067;-70
2021/11/20 18:18:00;;;;;;;18.10;13.80;;;;;;;5.96;97.37;95113.09;5071544;28;20028;-72
2021/11/20 18:20:26;;;;;;;22.42;15.13;;;;;;;6.13;96.97;95108.03;5080538;28;20036;-73
2021/11/20 18:22:51;;;;;;;26.25;19.70;;;;;;;6.31;95.77;95114.09;5061336;28;20496;-72
2021/11/20 18:25:17;;;;;;;25.70;18.98;;;;;;;6.23;95.98;95108.81;5049236;28;20032;-73
2021/11/20 18:27:42;;;;;;;24.23;18.35;;;;;;;6.04;96.73;95100.34;5059275;28;20039;-72
2021/11/20 18:30:10;;;;;;;18.10;15.70;;;;;;;6.08;96.80;95104.25;5059060;28;20079;-72
2021/11/20 18:32:36;;;;;;;15.77;13.23;;;;;;;6.11;97.13;95109.13;5084797;28;20024;-71
2021/11/20 18:35:05;;;;;;;20.88;14.80;;;;;;;6.23;96.65;95108.00;5073140;28;20067;-71
2021/11/20 18:37:31;;;;;;;18.83;14.38;;;;;;;6.27;96.28;95099.88;5085691;28;20035;-71
2021/11/20 18:39:56;;;;;;;20.20;15.73;;;;;;;6.23;96.50;95113.13;5074452;28;20052;-72
2021/11/20 18:42:22;;;;;;;19.77;15.25;;;;;;;6.08;96.80;95114.53;5084200;28;20028;-72
2021/11/20 18:44:47;;;;;;;16.73;13.80;;;;;;;6.05;96.59;95118.22;5093083;28;20458;-70
2021/11/20 18:47:13;;;;;;;17.75;14.05;;;;;;;5.95;96.99;95119.19;5089363;28;20020;-70
2021/11/20 18:49:38;;;;;;;15.60;13.60;;;;;;;5.95;97.05;95129.44;5051011;28;20029;-70
2021/11/20 18:52:04;;;;;;;14.93;13.15;;;;;;;6.04;96.61;95132.00;5045055;28;20028;-70
2021/11/20 18:54:30;;;;;;;18.13;15.23;;;;;;;5.97;96.47;95132.72;5071366;28;20027;-70
2021/11/20 18:56:56;;;;;;;16.08;13.50;;;;;;;5.83;96.38;95142.44;5071306;28;20401;-70
2021/11/20 18:59:22;;;;;;;15.85;12.57;;;;;;;5.54;96.88;95140.84;5070108;28;20104;-70
2021/11/20 19:01:47;;;;;;;14.48;12.98;;;;;;;5.04;97.61;95146.03;5089420;28;20036;-70
2021/11/20 19:04:13;;;;;;;12.02;10.82;;;;;;;4.53;97.97;95146.19;5050413;28;20020;-72
2021/11/20 19:06:39;;;;;;;14.73;11.88;;;;;;;4.46;100.00;95139.16;5111958;27;20056;-72
2021/11/20 19:09:05;;;;;;;10.98;9.85;;;;;;;4.73;100.00;95134.22;5090579;28;20043;-73
2021/11/20 19:11:31;;;;;;;14.65;10.77;;;;;;;5.05;100.00;95128.91;5101049;28;20028;-72
2021/11/20 19:13:58;;;;;;;12.23;10.93;;;;;;;5.11;99.63;95130.94;5050962;28;20024;-72
2021/11/20 19:16:24;;;;;;;11.85;10.65;;;;;;;5.06;99.78;95133.09;5047373;28;20517;-70
2021/11/20 19:18:50;;;;;;;11.70;10.60;;;;;;;5.07;100.00;95142.44;5088417;28;20039;-70
2021/11/20 19:21:16;;;;;;;12.05;10.95;;;;;;;4.99;100.00;95142.25;5075699;28;20024;-70
2021/11/20 19:23:42;;;;;;;13.57;12.13;;;;;;;4.97;100.00;95141.59;5070221;28;20067;-70
2021/11/20 19:26:10;;;;;;;12.23;10.95;;;;;;;4.88;100.00;95135.47;5068874;28;20052;-70
2021/11/20 19:28:38;;;;;;;11.43;10.43;;;;;;;4.86;100.00;95144.25;5069603;28;20039;-70
2021/11/20 19:31:03;;;;;;;16.70;14.07;;;;;;;4.94;100.00;95147.81;5070542;28;20020;-70
2021/11/20 19:33:29;;;;;;;17.48;15.70;;;;;;;4.93;100.00;95150.50;5071774;28;20038;-70
2021/11/20 19:35:58;;;;;;;19.55;15.45;;;;;;;4.92;100.00;95159.13;5109411;28;20511;-70
2021/11/20 19:38:28;;;;;;;14.68;12.27;;;;;;;4.97;100.00;95157.00;5080954;28;20095;-72
2021/11/20 19:40:53;;;;;;;16.15;14.45;;;;;;;4.82;100.00;95153.97;5067942;28;20401;-72
2021/11/20 19:43:19;;;;;;;13.65;12.35;;;;;;;4.75;100.00;95151.09;5076992;28;20028;-70
2021/11/20 19:45:44;;;;;;;16.38;13.63;;;;;;;4.75;100.00;95152.88;5082018;28;20032;-70
2021/11/20 19:48:10;;;;;;;12.68;11.40;;;;;;;4.79;100.00;95154.22;5044380;28;20036;-70
2021/11/20 19:50:35;;;;;;;14.05;12.65;;;;;;;4.58;100.00;95151.75;5077566;28;20082;-70
2021/11/20 19:53:02;;;;;;;16.48;14.90;;;;;;;4.32;100.00;95150.56;5063467;28;20028;-70
2021/11/20 19:55:27;;;;;;;17.23;15.40;;;;;;;4.30;100.00;95149.06;5058761;28;20032;-72
2021/11/20 19:57:53;;;;;;;17.15;15.18;;;;;;;4.29;100.00;95155.94;5057730;28;21997;-73
2021/11/20 20:00:21;;;;;;;15.43;13.80;;;;;;;4.21;100.00;95159.13;5074394;28;20552;-72
2021/11/20 20:02:48;;;;;;;15.70;13.77;;;;;;;3.87;100.00;95156.91;5069124;28;20032;-72
2021/11/20 20:05:14;;;;;;;17.25;13.27;;;;;;;4.34;100.00;95158.09;5068344;28;20073;-72
2021/11/20 20:07:39;;;;;;;15.15;13.65;;;;;;;3.96;100.00;95163.81;5072254;28;20035;-72
2021/11/20 20:10:07;;;;;;;17.77;15.88;;;;;;;3.87;100.00;95159.47;5075590;28;20020;-72
2021/11/20 20:12:33;;;;;;;15.25;13.55;;;;;;;3.89;100.00;95165.25;5068794;28;20024;-72
2021/11/20 20:14:58;;;;;;;14.90;13.30;;;;;;;3.72;100.00;95152.06;5068286;28;20024;-72
2021/11/20 20:17:24;;;;;;;15.85;13.57;;;;;;;3.76;100.00;95162.09;5085975;28;20027;-72
2021/11/20 20:19:51;;;;;;;19.52;15.77;;;;;;;3.61;100.00;95154.72;5067958;28;20066;-72
2021/11/20 20:22:16;;;;;;;17.02;13.85;;;;;;;3.68;100.00;95160.97;5086797;28;20028;-72
2021/11/20 20:24:42;;;;;;;22.00;18.67;;;;;;;3.69;100.00;95157.44;5067266;28;20034;-72
2021/11/20 20:27:08;;;;;;;30.73;24.60;;;;;;;3.57;100.00;95161.00;5080407;28;20494;-72
2021/11/20 20:29:34;;;;;;;38.33;27.45;;;;;;;3.24;100.00;95163.72;5071769;28;20471;-70
2021/11/20 20:32:00;;;;;;;29.83;22.20;;;;;;;3.33;100.00;95173.22;5069867;28;20038;-73
2021/11/20 20:34:25;;;;;;;38.95;25.27;;;;;;;3.44;100.00;95167.22;5067489;28;20043;-72
2021/11/20 20:36:51;;;;;;;44.78;30.77;;;;;;;3.41;100.00;95167.47;5086473;28;20114;-73
2021/11/20 20:39:17;;;;;;;28.45;22.20;;;;;;;3.11;100.00;95170.72;5067803;28;20051;-72
2021/11/20 20:41:42;;;;;;;30.30;20.23;;;;;;;3.10;100.00;95174.19;5067525;28;20065;-70
2021/11/20 20:44:09;;;;;;;49.28;28.65;;;;;;;3.39;100.00;95164.22;5081864;28;20035;-70
2021/11/20 20:46:35;;;;;;;53.38;33.00;;;;;;;3.33;100.00;95175.78;5100201;28;20082;-72
2021/11/20 20:49:01;;;;;;;81.53;49.28;;;;;;;3.21;100.00;95181.03;5080744;28;20024;-72
2021/11/20 20:51:26;;;;;;;85.18;58.92;;;;;;;3.28;100.00;95188.09;5067316;28;20038;-72
2021/11/20 20:53:52;;;;;;;83.00;53.92;;;;;;;3.32;100.00;95186.13;5067670;28;20404;-72
2021/11/20 20:56:18;;;;;;;79.75;51.42;;;;;;;3.14;100.00;95191.75;5067718;28;20028;-72
2021/11/20 20:58:46;;;;;;;83.63;54.58;;;;;;;3.00;100.00;95186.09;5068004;28;20405;-72
2021/11/20 21:01:12;;;;;;;37.42;26.67;;;;;;;2.99;100.00;95215.13;5067823;28;20059;-70
2021/11/20 21:03:38;;;;;;;24.88;18.92;;;;;;;2.86;100.00;95222.94;5067193;28;20103;-70
2021/11/20 21:06:03;;;;;;;15.85;14.18;;;;;;;2.07;100.00;95233.22;5059064;28;20111;-70
2021/11/20 21:08:28;;;;;;;16.60;14.90;;;;;;;2.02;100.00;95253.97;5074576;28;20047;-70
2021/11/20 21:10:54;;;;;;;13.48;11.70;;;;;;;2.41;100.00;95268.13;5051247;28;20020;-70
2021/11/20 21:13:20;;;;;;;14.45;12.95;;;;;;;2.52;100.00;95252.81;5047316;28;20555;-70
2021/11/20 21:15:46;;;;;;;14.00;12.80;;;;;;;2.50;100.00;95248.75;5040618;28;20110;-70
2021/11/20 21:18:16;;;;;;;19.60;16.88;;;;;;;2.35;100.00;95253.25;5067785;28;20032;-70
2021/11/20 21:23:27;;;;;;;15.32;12.95;;;;;;;2.46;100.00;95260.13;5086334;28;20042;-70
2021/11/20 21:25:53;;;;;;;16.88;13.02;;;;;;;2.49;100.00;95253.03;5085211;28;20040;-70
2021/11/20 21:28:19;;;;;;;16.98;15.05;;;;;;;2.52;100.00;95257.09;5086210;28;20097;-69